createdAt,value
2022-10-07T00:01:02.370Z,99502.13
2022-10-07T00:03:29.981Z,99501.69
2022-10-07T00:06:03.348Z,99501.81
2022-10-07T00:08:30.986Z,99501.66
2022-10-07T00:10:58.424Z,99504.63
2022-10-07T00:13:25.975Z,99497.16
2022-10-07T00:15:53.257Z,99500.81
2022-10-07T00:18:20.660Z,99492.06
2022-10-07T00:20:47.952Z,99500.69
2022-10-07T00:23:15.252Z,99490.28
2022-10-07T00:25:42.540Z,99490.81
2022-10-07T00:28:09.985Z,99489.00
2022-10-07T00:30:37.413Z,99496.53
2022-10-07T00:33:04.828Z,99486.41
2022-10-07T00:35:34.837Z,99479.06
2022-10-07T00:38:02.142Z,99481.41
2022-10-07T00:40:29.524Z,99477.00
2022-10-07T00:42:56.849Z,99473.25
2022-10-07T00:45:24.215Z,99470.34
2022-10-07T00:47:51.639Z,99468.50
2022-10-07T00:50:26.016Z,99456.91
2022-10-07T00:52:57.605Z,99455.13
2022-10-07T00:55:27.195Z,99451.28
2022-10-07T00:57:57.305Z,99456.09
2022-10-07T01:00:24.722Z,99454.72
2022-10-07T01:02:52.510Z,99450.06
2022-10-07T01:05:20.601Z,99450.16
2022-10-07T01:07:48.791Z,99453.72
2022-10-07T01:10:19.916Z,99446.81
2022-10-07T01:12:54.374Z,99443.84
2022-10-07T01:15:24.878Z,99439.16
2022-10-07T01:18:31.291Z,99434.25
2022-10-07T01:21:06.814Z,99433.19
2022-10-07T01:24:07.085Z,99436.59
2022-10-07T01:27:01.950Z,99421.94
2022-10-07T01:29:56.370Z,99427.63
2022-10-07T01:32:38.095Z,99418.59
2022-10-07T01:35:15.414Z,99417.19
2022-10-07T01:37:47.213Z,99406.81
2022-10-07T01:40:28.441Z,99403.06
2022-10-07T01:42:56.360Z,99411.91
2022-10-07T01:45:26.589Z,99408.88
2022-10-07T01:47:53.960Z,99405.66
2022-10-07T01:50:25.455Z,99402.81
2022-10-07T01:53:12.747Z,99404.88
2022-10-07T01:56:01.886Z,99392.50
2022-10-07T01:58:51.492Z,99399.53
2022-10-07T02:01:57.243Z,99399.38
2022-10-07T02:04:31.106Z,99388.53
2022-10-07T02:07:12.076Z,99385.81
2022-10-07T02:09:46.785Z,99390.63
2022-10-07T02:12:35.264Z,99388.19
2022-10-07T02:15:20.037Z,99378.53
2022-10-07T02:17:50.360Z,99381.00
2022-10-07T02:20:18.811Z,99368.81
2022-10-07T02:22:47.641Z,99377.13
2022-10-07T02:25:16.389Z,99378.72
2022-10-07T02:27:46.244Z,99369.94
2022-10-07T02:30:16.452Z,99369.53
2022-10-07T02:32:56.720Z,99363.91
2022-10-07T02:35:47.613Z,99356.13
2022-10-07T02:38:17.890Z,99352.53
2022-10-07T02:40:52.266Z,99355.63
2022-10-07T02:43:36.338Z,99351.38
2022-10-07T02:46:11.875Z,99348.13
2022-10-07T02:48:56.309Z,99339.09
2022-10-07T02:51:33.944Z,99336.94
2022-10-07T02:54:04.348Z,99329.00
2022-10-07T02:56:33.242Z,99338.59
2022-10-07T02:59:01.336Z,99337.19
2022-10-07T03:01:31.997Z,99336.38
2022-10-07T03:03:59.645Z,99331.69
2022-10-07T03:06:29.566Z,99335.31
2022-10-07T03:09:00.224Z,99327.09
2022-10-07T03:11:27.572Z,99324.84
2022-10-07T03:13:55.029Z,99333.94
2022-10-07T03:16:22.601Z,99331.41
2022-10-07T03:18:51.173Z,99324.53
2022-10-07T03:21:26.499Z,99320.00
2022-10-07T03:23:56.090Z,99318.69
2022-10-07T03:26:28.732Z,99323.16
2022-10-07T03:28:56.233Z,99314.28
2022-10-07T03:31:25.329Z,99315.31
2022-10-07T03:33:56.878Z,99314.38
2022-10-07T03:36:26.483Z,99304.94
2022-10-07T03:38:55.611Z,99308.66
2022-10-07T03:41:24.302Z,99309.19
2022-10-07T03:43:57.332Z,99309.72
2022-10-07T03:46:25.679Z,99304.31
2022-10-07T03:48:53.532Z,99313.00
2022-10-07T03:51:21.027Z,99299.88
2022-10-07T03:53:48.705Z,99300.53
2022-10-07T03:56:16.696Z,99302.34
2022-10-07T03:58:44.633Z,99304.34
2022-10-07T04:01:15.128Z,99295.75
2022-10-07T04:03:47.945Z,99289.50
2022-10-07T04:06:15.643Z,99297.22
2022-10-07T04:08:44.673Z,99291.47
2022-10-07T04:11:12.472Z,99286.78
2022-10-07T04:13:42.003Z,99275.22
2022-10-07T04:16:11.008Z,99278.75
2022-10-07T04:18:39.237Z,99276.91
2022-10-07T04:21:08.116Z,99280.41
2022-10-07T04:23:37.092Z,99270.97
2022-10-07T04:26:09.475Z,99272.63
2022-10-07T04:28:38.705Z,99270.50
2022-10-07T04:31:11.234Z,99267.44
2022-10-07T04:33:43.256Z,99266.72
2022-10-07T04:36:13.638Z,99260.38
2022-10-07T04:38:52.061Z,99264.50
2022-10-07T04:41:25.144Z,99264.53
2022-10-07T04:43:57.598Z,99262.19
2022-10-07T04:46:28.342Z,99266.13
2022-10-07T04:49:01.364Z,99262.50
2022-10-07T04:51:31.086Z,99259.53
2022-10-07T04:54:00.751Z,99257.00
2022-10-07T04:56:40.977Z,99253.84
2022-10-07T04:59:11.595Z,99254.16
2022-10-07T05:01:40.124Z,99254.97
2022-10-07T05:04:10.553Z,99248.84
2022-10-07T05:06:38.069Z,99250.31
2022-10-07T05:09:05.493Z,99249.13
2022-10-07T05:11:37.718Z,99248.00
2022-10-07T05:14:13.376Z,99256.06
2022-10-07T05:16:42.498Z,99254.69
2022-10-07T05:19:10.506Z,99245.25
2022-10-07T05:21:38.488Z,99243.75
2022-10-07T05:24:05.865Z,99249.47
2022-10-07T05:26:36.310Z,99243.75
2022-10-07T05:29:06.873Z,99250.66
2022-10-07T05:31:39.040Z,99246.06
2022-10-07T05:34:08.079Z,99249.34
2022-10-07T05:36:36.434Z,99251.16
2022-10-07T05:39:05.831Z,99250.19
2022-10-07T05:41:45.741Z,99246.38
2022-10-07T05:44:17.277Z,99246.47
2022-10-07T05:46:44.968Z,99246.47
2022-10-07T05:49:13.564Z,99253.06
2022-10-07T05:51:41.736Z,99243.53
2022-10-07T05:54:09.323Z,99249.69
2022-10-07T05:56:40.895Z,99242.16
2022-10-07T05:59:08.609Z,99238.69
2022-10-07T06:01:37.766Z,99238.25
2022-10-07T06:04:12.193Z,99234.84
2022-10-07T06:06:42.064Z,99239.28
2022-10-07T06:09:30.097Z,99239.19
2022-10-07T06:12:17.968Z,99231.88
2022-10-07T06:14:46.940Z,99228.19
2022-10-07T06:17:14.268Z,99220.88
2022-10-07T06:19:43.309Z,99230.50
2022-10-07T06:22:11.163Z,99230.84
2022-10-07T06:24:40.114Z,99225.75
2022-10-07T06:27:07.653Z,99227.63
2022-10-07T06:29:36.362Z,99221.38
2022-10-07T06:32:03.726Z,99227.84
2022-10-07T06:34:31.854Z,99227.13
2022-10-07T06:36:59.499Z,99221.16
2022-10-07T06:39:27.172Z,99225.78
2022-10-07T06:41:57.140Z,99231.88
2022-10-07T06:44:43.088Z,99228.78
2022-10-07T06:47:13.605Z,99230.59
2022-10-07T06:49:43.056Z,99233.84
2022-10-07T06:52:11.029Z,99235.28
2022-10-07T06:54:38.426Z,99243.63
2022-10-07T06:57:26.313Z,99240.88
2022-10-07T06:59:55.000Z,99236.59
2022-10-07T07:02:25.035Z,99233.28
2022-10-07T07:04:57.694Z,99237.50
2022-10-07T07:07:26.107Z,99237.56
2022-10-07T07:09:53.714Z,99232.34
2022-10-07T07:12:25.177Z,99239.13
2022-10-07T07:14:53.399Z,99245.44
2022-10-07T07:17:21.794Z,99242.13
2022-10-07T07:19:49.123Z,99235.34
2022-10-07T07:22:17.572Z,99240.63
2022-10-07T07:24:44.932Z,99242.00
2022-10-07T07:27:14.559Z,99237.00
2022-10-07T07:29:43.604Z,99233.81
2022-10-07T07:32:11.876Z,99236.19
2022-10-07T07:34:42.555Z,99232.94
2022-10-07T07:37:14.065Z,99232.22
2022-10-07T07:39:46.570Z,99232.50
2022-10-07T07:42:16.799Z,99234.25
2022-10-07T07:44:44.195Z,99234.81
2022-10-07T07:47:18.437Z,99233.78
2022-10-07T07:49:48.500Z,99229.91
2022-10-07T07:52:25.313Z,99221.78
2022-10-07T07:54:57.878Z,99225.25
2022-10-07T07:57:26.968Z,99222.53
2022-10-07T07:59:55.157Z,99212.78
2022-10-07T08:02:23.523Z,99219.97
2022-10-07T08:04:51.989Z,99220.72
2022-10-07T08:07:20.011Z,99218.06
2022-10-07T08:09:49.770Z,99222.56
2022-10-07T08:12:17.612Z,99213.84
2022-10-07T08:14:45.878Z,99205.69
2022-10-07T08:17:13.935Z,99214.25
2022-10-07T08:19:41.450Z,99215.91
2022-10-07T08:22:09.534Z,99208.47
2022-10-07T08:24:37.695Z,99207.28
2022-10-07T08:27:05.127Z,99205.44
2022-10-07T08:29:32.484Z,99197.31
2022-10-07T08:31:59.969Z,99197.19
2022-10-07T08:34:27.371Z,99186.78
2022-10-07T08:36:56.162Z,99186.13
2022-10-07T08:39:24.663Z,99185.00
2022-10-07T08:41:58.113Z,99178.38
2022-10-07T08:44:35.960Z,99182.13
2022-10-07T08:47:17.470Z,99182.50
2022-10-07T08:50:23.891Z,99176.25
2022-10-07T08:52:55.913Z,99175.66
2022-10-07T08:55:45.749Z,99174.75
2022-10-07T08:58:25.079Z,99172.06
2022-10-07T09:01:19.174Z,99162.72
2022-10-07T09:03:55.588Z,99162.97
2022-10-07T09:06:37.181Z,99155.28
2022-10-07T09:09:17.792Z,99150.06
2022-10-07T09:11:46.926Z,99150.97
2022-10-07T09:14:34.232Z,99140.66
2022-10-07T09:17:13.427Z,99142.16
2022-10-07T09:19:47.223Z,99152.09
2022-10-07T09:22:25.268Z,99146.50
2022-10-07T09:24:59.045Z,99137.47
2022-10-07T09:27:26.725Z,99134.50
2022-10-07T09:29:54.048Z,99133.81
2022-10-07T09:32:21.433Z,99125.09
2022-10-07T09:34:48.796Z,99115.91
2022-10-07T09:37:23.199Z,99116.31
2022-10-07T09:39:53.230Z,99105.81
2022-10-07T09:42:37.401Z,99117.97
2022-10-07T09:45:32.727Z,99109.69
2022-10-07T09:48:07.107Z,99123.25
2022-10-07T09:50:42.069Z,99116.69
2022-10-07T09:53:19.770Z,99116.97
2022-10-07T09:55:47.473Z,99109.22
2022-10-07T09:58:19.372Z,99108.22
2022-10-07T10:00:49.688Z,99108.34
2022-10-07T10:03:18.253Z,99106.31
2022-10-07T10:05:51.831Z,99102.28
2022-10-07T10:08:19.082Z,99096.16
2022-10-07T10:10:58.154Z,99104.72
2022-10-07T10:13:36.673Z,99095.16
2022-10-07T10:16:05.995Z,99080.22
2022-10-07T10:18:34.780Z,99084.16
2022-10-07T10:21:20.768Z,99079.16
2022-10-07T10:23:52.540Z,99070.22
2022-10-07T10:26:44.632Z,99069.03
2022-10-07T10:29:32.172Z,99073.25
2022-10-07T10:32:02.222Z,99062.66
2022-10-07T10:34:42.212Z,99061.81
2022-10-07T10:37:21.339Z,99057.66
2022-10-07T10:40:15.289Z,99056.66
2022-10-07T10:43:12.506Z,99056.97
2022-10-07T10:46:00.614Z,99048.97
2022-10-07T10:48:44.119Z,99049.13
2022-10-07T10:51:45.244Z,99037.59
2022-10-07T10:54:43.217Z,99031.88
2022-10-07T10:57:37.786Z,99030.22
2022-10-07T11:00:24.225Z,99023.31
2022-10-07T11:03:07.844Z,99024.03
2022-10-07T11:05:37.979Z,99022.16
2022-10-07T11:08:27.448Z,99011.44
2022-10-07T11:11:12.147Z,99007.28
2022-10-07T11:14:10.410Z,99018.19
2022-10-07T11:16:47.738Z,99008.03
2022-10-07T11:19:22.536Z,99000.22
2022-10-07T11:21:50.704Z,99001.56
2022-10-07T11:24:40.702Z,99000.75
2022-10-07T11:27:24.107Z,99010.72
2022-10-07T11:29:57.632Z,99001.78
2022-10-07T11:32:57.478Z,99002.13
2022-10-07T11:35:44.801Z,98988.59
2022-10-07T11:38:14.782Z,98982.59
2022-10-07T11:40:46.288Z,98980.38
2022-10-07T11:43:25.495Z,98975.13
2022-10-07T11:46:00.382Z,98974.31
2022-10-07T11:48:49.085Z,98967.44
2022-10-07T11:51:22.984Z,98960.03
2022-10-07T11:53:54.296Z,98963.03
2022-10-07T11:56:26.872Z,98959.22
2022-10-07T11:59:37.330Z,98961.81
2022-10-07T12:02:15.861Z,98948.63
2022-10-07T12:04:43.238Z,98935.78
2022-10-07T12:07:32.457Z,98932.75
2022-10-07T12:10:03.281Z,98942.03
2022-10-07T12:12:46.275Z,98934.03
2022-10-07T12:15:34.419Z,98929.44
2022-10-07T12:18:10.604Z,98924.03
2022-10-07T12:20:50.195Z,98914.13
2022-10-07T12:23:23.296Z,98909.00
2022-10-07T12:26:05.328Z,98910.16
2022-10-07T12:28:47.279Z,98914.47
2022-10-07T12:31:18.637Z,98900.88
2022-10-07T12:33:46.054Z,98903.25
2022-10-07T12:36:22.086Z,98886.63
2022-10-07T12:38:59.179Z,98879.72
2022-10-07T12:41:39.949Z,98882.50
2022-10-07T12:44:35.141Z,98883.00
2022-10-07T12:47:22.697Z,98889.47
2022-10-07T12:49:58.974Z,98882.16
2022-10-07T12:52:32.345Z,98886.16
2022-10-07T12:55:09.288Z,98891.94
2022-10-07T12:57:38.578Z,98885.25
2022-10-07T13:00:10.519Z,98875.47
2022-10-07T13:02:58.983Z,98879.28
2022-10-07T13:05:45.234Z,98878.13
2022-10-07T13:08:37.328Z,98875.69
2022-10-07T13:11:47.503Z,98866.44
2022-10-07T13:14:20.976Z,98869.81
2022-10-07T13:16:51.369Z,98876.34
2022-10-07T13:19:18.632Z,98867.13
2022-10-07T13:21:46.874Z,98862.06
2022-10-07T13:24:23.412Z,98859.38
2022-10-07T13:26:51.739Z,98863.88
2022-10-07T13:29:39.384Z,98864.06
2022-10-07T13:32:18.182Z,98849.25
2022-10-07T13:34:46.370Z,98845.91
2022-10-07T13:37:35.419Z,98837.38
2022-10-07T13:40:22.546Z,98829.06
2022-10-07T13:42:59.082Z,98835.66
2022-10-07T13:45:27.827Z,98824.69
2022-10-07T13:47:57.602Z,98821.53
2022-10-07T13:50:27.248Z,98822.91
2022-10-07T13:52:55.962Z,98816.44
2022-10-07T13:55:29.714Z,98812.97
2022-10-07T13:58:00.586Z,98808.03
2022-10-07T14:00:29.273Z,98806.69
2022-10-07T14:02:56.802Z,98805.91
2022-10-07T14:05:27.692Z,98807.56
2022-10-07T14:07:58.109Z,98805.13
2022-10-07T14:10:27.619Z,98803.59
2022-10-07T14:13:00.396Z,98800.72
2022-10-07T14:15:30.215Z,98798.44
2022-10-07T14:18:13.233Z,98791.94
2022-10-07T14:20:43.759Z,98784.16
2022-10-07T14:23:33.765Z,98785.41
2022-10-07T14:26:06.508Z,98782.72
2022-10-07T14:28:35.973Z,98779.94
2022-10-07T14:31:39.745Z,98785.25
2022-10-07T14:34:37.811Z,98777.72
2022-10-07T14:37:16.980Z,98782.94
2022-10-07T14:39:48.711Z,98779.91
2022-10-07T14:42:23.344Z,98777.22
2022-10-07T14:44:51.784Z,98769.31
2022-10-07T14:47:21.168Z,98767.91
2022-10-07T14:49:48.925Z,98769.91
2022-10-07T14:52:42.165Z,98766.25
2022-10-07T14:55:26.382Z,98761.41
2022-10-07T14:57:54.587Z,98760.25
2022-10-07T15:00:29.272Z,98753.88
2022-10-07T15:02:58.816Z,98749.00
2022-10-07T15:05:33.639Z,98746.31
2022-10-07T15:08:01.782Z,98744.56
2022-10-07T15:10:29.099Z,98742.59
2022-10-07T15:12:56.802Z,98751.31
2022-10-07T15:15:24.209Z,98752.28
2022-10-07T15:17:51.645Z,98734.88
2022-10-07T15:20:19.499Z,98741.56
2022-10-07T15:22:47.159Z,98741.72
2022-10-07T15:25:15.257Z,98743.91
2022-10-07T15:27:44.309Z,98741.94
2022-10-07T15:30:12.465Z,98743.59
2022-10-07T15:32:41.545Z,98735.88
2022-10-07T15:35:10.045Z,98738.72
2022-10-07T15:37:37.913Z,98732.50
2022-10-07T15:40:07.527Z,98739.53
2022-10-07T15:42:34.878Z,98733.19
2022-10-07T15:45:02.246Z,98725.81
2022-10-07T15:47:33.353Z,98727.97
2022-10-07T15:50:01.099Z,98727.78
2022-10-07T15:52:28.789Z,98723.94
2022-10-07T15:54:56.582Z,98717.03
2022-10-07T15:57:24.465Z,98718.22
2022-10-07T15:59:54.683Z,98732.22
2022-10-07T16:02:22.396Z,98722.31
2022-10-07T16:04:49.750Z,98719.41
2022-10-07T16:07:17.177Z,98721.88
2022-10-07T16:09:44.466Z,98727.53
2022-10-07T16:12:13.205Z,98718.13
2022-10-07T16:14:40.583Z,98726.59
2022-10-07T16:17:08.290Z,98729.28
2022-10-07T16:19:35.656Z,98724.88
2022-10-07T16:22:03.807Z,98722.34
2022-10-07T16:24:35.311Z,98717.34
2022-10-07T16:27:03.254Z,98719.56
2022-10-07T16:29:49.133Z,98709.53
2022-10-07T16:32:16.507Z,98720.69
2022-10-07T16:34:44.832Z,98708.09
2022-10-07T16:37:12.615Z,98711.38
2022-10-07T16:39:40.057Z,98707.84
2022-10-07T16:42:07.509Z,98715.91
2022-10-07T16:44:35.330Z,98711.34
2022-10-07T16:47:02.997Z,98711.13
2022-10-07T16:49:30.542Z,98714.38
2022-10-07T16:51:58.091Z,98703.78
2022-10-07T16:54:25.853Z,98696.25
2022-10-07T16:56:53.425Z,98704.41
2022-10-07T16:59:24.190Z,98699.06
2022-10-07T17:01:55.603Z,98690.50
2022-10-07T17:04:24.607Z,98704.63
2022-10-07T17:06:52.488Z,98702.59
2022-10-07T17:09:19.954Z,98705.16
2022-10-07T17:11:47.575Z,98711.16
2022-10-07T17:14:17.241Z,98707.09
2022-10-07T17:16:46.770Z,98704.75
2022-10-07T17:19:19.585Z,98716.09
2022-10-07T17:21:48.178Z,98713.38
2022-10-07T17:24:16.788Z,98711.59
2022-10-07T17:26:44.767Z,98708.84
2022-10-07T17:29:13.988Z,98703.81
2022-10-07T17:31:43.073Z,98708.13
2022-10-07T17:34:11.848Z,98699.44
2022-10-07T17:36:39.773Z,98699.03
2022-10-07T17:39:07.551Z,98694.72
2022-10-07T17:41:36.905Z,98693.03
2022-10-07T17:44:09.215Z,98702.31
2022-10-07T17:46:39.000Z,98703.59
2022-10-07T17:49:08.621Z,98704.00
2022-10-07T17:51:37.255Z,98706.94
2022-10-07T17:54:05.842Z,98710.94
2022-10-07T17:56:34.170Z,98715.09
2022-10-07T17:59:01.924Z,98709.34
2022-10-07T18:01:31.871Z,98710.00
2022-10-07T18:04:07.757Z,98709.72
2022-10-07T18:06:36.715Z,98705.78
2022-10-07T18:09:12.729Z,98696.25
2022-10-07T18:11:59.004Z,98694.16
2022-10-07T18:14:46.134Z,98696.22
2022-10-07T18:17:15.110Z,98700.41
2022-10-07T18:19:42.548Z,98698.03
2022-10-07T18:22:10.044Z,98688.97
2022-10-07T18:24:37.465Z,98692.50
2022-10-07T18:27:04.833Z,98682.56
2022-10-07T18:29:34.241Z,98695.03
2022-10-07T18:32:01.968Z,98695.19
2022-10-07T18:34:29.554Z,98689.72
2022-10-07T18:36:57.429Z,98691.28
2022-10-07T18:39:29.361Z,98684.81
2022-10-07T18:41:57.332Z,98684.66
2022-10-07T18:44:24.641Z,98689.44
2022-10-07T18:46:52.182Z,98686.78
2022-10-07T18:49:19.597Z,98685.22
2022-10-07T18:51:47.295Z,98684.78
2022-10-07T18:54:14.793Z,98683.94
2022-10-07T18:56:42.189Z,98684.22
2022-10-07T18:59:12.945Z,98679.59
2022-10-07T19:01:40.836Z,98677.72
2022-10-07T19:04:08.666Z,98677.47
2022-10-07T19:06:38.315Z,98677.59
2022-10-07T19:09:08.143Z,98676.38
2022-10-07T19:11:35.772Z,98674.69
2022-10-07T19:14:03.068Z,98679.91
2022-10-07T19:16:35.543Z,98677.66
2022-10-07T19:19:08.378Z,98683.97
2022-10-07T19:21:36.041Z,98682.44
2022-10-07T19:24:04.463Z,98678.38
2022-10-07T19:26:37.425Z,98678.91
2022-10-07T19:29:06.455Z,98679.34
2022-10-07T19:31:36.103Z,98686.47
2022-10-07T19:34:20.424Z,98679.03
2022-10-07T19:36:48.493Z,98682.19
2022-10-07T19:39:20.981Z,98673.34
2022-10-07T19:41:48.609Z,98679.34
2022-10-07T19:44:16.494Z,98680.50
2022-10-07T19:46:44.248Z,98674.09
2022-10-07T19:49:12.429Z,98682.38
2022-10-07T19:51:40.483Z,98685.31
2022-10-07T19:54:12.882Z,98676.38
2022-10-07T19:56:41.009Z,98687.56
2022-10-07T19:59:10.839Z,98685.28
2022-10-07T20:01:43.509Z,98683.22
2022-10-07T20:04:13.826Z,98683.47
2022-10-07T20:06:41.758Z,98677.16
2022-10-07T20:09:11.595Z,98685.94
2022-10-07T20:11:39.023Z,98686.22
2022-10-07T20:14:06.615Z,98679.75
2022-10-07T20:16:34.935Z,98679.25
2022-10-07T20:19:05.786Z,98678.69
2022-10-07T20:21:36.456Z,98677.34
2022-10-07T20:24:05.190Z,98669.13
2022-10-07T20:26:34.721Z,98666.47
2022-10-07T20:29:03.835Z,98678.91
2022-10-07T20:31:34.922Z,98678.66
2022-10-07T20:34:03.117Z,98673.53
2022-10-07T20:36:34.484Z,98673.00
2022-10-07T20:39:26.295Z,98676.34
2022-10-07T20:42:12.736Z,98670.63
2022-10-07T20:44:39.951Z,98675.81
2022-10-07T20:47:09.624Z,98669.47
2022-10-07T20:49:38.791Z,98673.97
2022-10-07T20:52:18.749Z,98667.69
2022-10-07T20:54:47.401Z,98669.81
2022-10-07T20:57:18.354Z,98673.09
2022-10-07T20:59:45.472Z,98676.22
2022-10-07T21:02:14.387Z,98666.34
2022-10-07T21:04:41.737Z,98667.69
2022-10-07T21:07:09.482Z,98654.72
2022-10-07T21:09:36.834Z,98648.44
2022-10-07T21:12:11.189Z,98656.81
2022-10-07T21:14:38.502Z,98654.91
2022-10-07T21:17:06.946Z,98654.34
2022-10-07T21:19:37.830Z,98652.63
2022-10-07T21:22:06.433Z,98651.66
2022-10-07T21:24:36.706Z,98645.91
2022-10-07T21:27:06.714Z,98644.94
2022-10-07T21:29:38.967Z,98642.72
2022-10-07T21:32:09.339Z,98645.09
2022-10-07T21:34:36.811Z,98645.66
2022-10-07T21:37:04.792Z,98647.38
2022-10-07T21:39:32.245Z,98640.16
2022-10-07T21:41:59.806Z,98634.47
2022-10-07T21:44:27.569Z,98634.63
2022-10-07T21:46:54.578Z,98632.09
2022-10-07T21:49:21.576Z,98635.94
2022-10-07T21:51:48.502Z,98640.78
2022-10-07T21:54:15.768Z,98639.94
2022-10-07T21:56:45.829Z,98636.13
2022-10-07T21:59:14.284Z,98624.88
2022-10-07T22:01:42.659Z,98624.28
2022-10-07T22:04:17.216Z,98621.41
2022-10-07T22:07:03.596Z,98615.88
2022-10-07T22:09:31.313Z,98626.22
2022-10-07T22:11:58.529Z,98625.13
2022-10-07T22:14:25.529Z,98623.63
2022-10-07T22:16:52.453Z,98625.47
2022-10-07T22:19:19.361Z,98615.84
2022-10-07T22:21:46.273Z,98616.59
2022-10-07T22:24:13.942Z,98617.44
2022-10-07T22:26:45.885Z,98616.41
2022-10-07T22:29:16.187Z,98618.78
2022-10-07T22:31:43.842Z,98608.44
2022-10-07T22:34:30.904Z,98609.97
2022-10-07T22:36:58.143Z,98605.31
2022-10-07T22:39:26.568Z,98604.38
2022-10-07T22:41:53.890Z,98603.72
2022-10-07T22:44:20.882Z,98614.72
2022-10-07T22:46:48.050Z,98609.09
2022-10-07T22:49:15.171Z,98599.78
2022-10-07T22:51:43.032Z,98595.03
2022-10-07T22:54:12.874Z,98603.22
2022-10-07T22:56:40.365Z,98605.00
2022-10-07T22:59:08.502Z,98603.00
2022-10-07T23:01:36.611Z,98601.41
2022-10-07T23:04:04.537Z,98601.53
2022-10-07T23:06:34.418Z,98591.00
2022-10-07T23:09:03.351Z,98595.88
2022-10-07T23:11:31.573Z,98601.31
2022-10-07T23:13:58.540Z,98592.16
2022-10-07T23:16:29.688Z,98599.41
2022-10-07T23:18:58.667Z,98604.72
2022-10-07T23:21:33.540Z,98605.13
2022-10-07T23:24:06.305Z,98601.28
2022-10-07T23:26:34.446Z,98597.31
2022-10-07T23:29:03.382Z,98598.09
2022-10-07T23:31:32.046Z,98602.03
2022-10-07T23:34:00.912Z,98599.41
2022-10-07T23:36:29.330Z,98599.97
2022-10-07T23:38:58.532Z,98588.13
2022-10-07T23:41:28.559Z,98594.34
2022-10-07T23:43:58.992Z,98595.28
2022-10-07T23:46:27.198Z,98586.19
2022-10-07T23:48:56.036Z,98593.75
2022-10-07T23:51:26.122Z,98598.69
2022-10-07T23:53:53.682Z,98595.94
2022-10-07T23:56:20.633Z,98598.22
2022-10-07T23:58:47.696Z,98584.88
